sensor_id;sensor_type;location;lat;lon;timestamp;pressure;altitude;pressure_sealevel;temperature;humidity
62374;BME280;48409;49.030;1.820;2023-01-26T00:00:05;101725.31;;;3.45;63.69
62374;BME280;48409;49.030;1.820;2023-01-26T00:02:31;101727.94;;;3.46;63.51
62374;BME280;48409;49.030;1.820;2023-01-26T00:04:56;101721.84;;;3.46;63.71
62374;BME280;48409;49.030;1.820;2023-01-26T00:07:21;101714.03;;;3.46;63.71
62374;BME280;48409;49.030;1.820;2023-01-26T00:09:47;101703.59;;;3.46;63.71
62374;BME280;48409;49.030;1.820;2023-01-26T00:12:12;101698.41;;;3.46;63.76
62374;BME280;48409;49.030;1.820;2023-01-26T00:14:37;101699.28;;;3.45;63.60
62374;BME280;48409;49.030;1.820;2023-01-26T00:17:16;101700.13;;;3.47;63.91
62374;BME280;48409;49.030;1.820;2023-01-26T00:19:54;101695.78;;;3.46;63.52
62374;BME280;48409;49.030;1.820;2023-01-26T00:22:20;101694.06;;;3.45;63.77
62374;BME280;48409;49.030;1.820;2023-01-26T00:24:46;101683.63;;;3.45;63.63
62374;BME280;48409;49.030;1.820;2023-01-26T00:27:11;101680.16;;;3.46;63.72
62374;BME280;48409;49.030;1.820;2023-01-26T00:29:36;101678.44;;;3.45;63.60
62374;BME280;48409;49.030;1.820;2023-01-26T00:32:02;101684.50;;;3.45;63.81
62374;BME280;48409;49.030;1.820;2023-01-26T00:34:27;101666.25;;;3.44;63.57
62374;BME280;48409;49.030;1.820;2023-01-26T00:36:53;101668.84;;;3.44;63.54
62374;BME280;48409;49.030;1.820;2023-01-26T00:39:18;101671.47;;;3.45;63.73
62374;BME280;48409;49.030;1.820;2023-01-26T00:41:44;101665.41;;;3.45;63.69
62374;BME280;48409;49.030;1.820;2023-01-26T00:44:28;101668.84;;;3.45;63.79
62374;BME280;48409;49.030;1.820;2023-01-26T00:46:53;101673.22;;;3.46;63.84
62374;BME280;48409;49.030;1.820;2023-01-26T00:49:18;101674.06;;;3.47;63.72
62374;BME280;48409;49.030;1.820;2023-01-26T00:51:44;101663.66;;;3.45;63.88
62374;BME280;48409;49.030;1.820;2023-01-26T00:54:09;101666.25;;;3.47;63.64
62374;BME280;48409;49.030;1.820;2023-01-26T00:56:34;101664.53;;;3.46;63.90
62374;BME280;48409;49.030;1.820;2023-01-26T00:59:00;101664.53;;;3.46;63.74
62374;BME280;48409;49.030;1.820;2023-01-26T01:01:25;101666.25;;;3.47;63.67
62374;BME280;48409;49.030;1.820;2023-01-26T01:03:51;101664.53;;;3.47;63.77
62374;BME280;48409;49.030;1.820;2023-01-26T01:06:17;101667.13;;;3.47;63.66
62374;BME280;48409;49.030;1.820;2023-01-26T01:08:42;101666.25;;;3.47;63.68
62374;BME280;48409;49.030;1.820;2023-01-26T01:11:10;101667.97;;;3.48;63.80
62374;BME280;48409;49.030;1.820;2023-01-26T01:13:37;101657.56;;;3.48;63.69
62374;BME280;48409;49.030;1.820;2023-01-26T01:16:07;101659.31;;;3.49;63.90
62374;BME280;48409;49.030;1.820;2023-01-26T01:18:34;101654.97;;;3.48;63.61
62374;BME280;48409;49.030;1.820;2023-01-26T01:20:59;101653.22;;;3.48;63.62
62374;BME280;48409;49.030;1.820;2023-01-26T01:23:27;101657.56;;;3.48;63.71
62374;BME280;48409;49.030;1.820;2023-01-26T02:42:17;101598.53;;;3.34;63.98
62374;BME280;48409;49.030;1.820;2023-01-26T02:45:01;101589.00;;;3.35;64.10
62374;BME280;48409;49.030;1.820;2023-01-26T02:47:27;101582.91;;;3.34;63.96
62374;BME280;48409;49.030;1.820;2023-01-26T02:49:52;101582.03;;;3.38;63.93
62374;BME280;48409;49.030;1.820;2023-01-26T02:52:23;101579.44;;;3.38;63.99
62374;BME280;48409;49.030;1.820;2023-01-26T02:54:50;101582.03;;;3.42;64.01
62374;BME280;48409;49.030;1.820;2023-01-26T02:57:34;101581.16;;;3.43;64.11
62374;BME280;48409;49.030;1.820;2023-01-26T03:00:00;101583.78;;;3.44;64.23
62374;BME280;48409;49.030;1.820;2023-01-26T03:02:26;101582.91;;;3.47;64.09
62374;BME280;48409;49.030;1.820;2023-01-26T03:04:51;101576.81;;;3.48;64.11
62374;BME280;48409;49.030;1.820;2023-01-26T03:07:17;101582.91;;;3.50;64.01
62374;BME280;48409;49.030;1.820;2023-01-26T03:09:42;101579.41;;;3.51;63.96
62374;BME280;48409;49.030;1.820;2023-01-26T03:12:08;101587.22;;;3.52;64.00
62374;BME280;48409;49.030;1.820;2023-01-26T03:14:33;101582.03;;;3.52;63.80
62374;BME280;48409;49.030;1.820;2023-01-26T03:16:58;101580.25;;;3.55;64.02
62374;BME280;48409;49.030;1.820;2023-01-26T03:19:24;101582.03;;;3.56;63.97
62374;BME280;48409;49.030;1.820;2023-01-26T03:22:09;101580.25;;;3.56;64.03
62374;BME280;48409;49.030;1.820;2023-01-26T03:25:12;101575.06;;;3.56;64.09
62374;BME280;48409;49.030;1.820;2023-01-26T03:27:56;101575.06;;;3.56;63.95
62374;BME280;48409;49.030;1.820;2023-01-26T03:30:23;101574.22;;;3.56;63.90
62374;BME280;48409;49.030;1.820;2023-01-26T03:32:48;101571.59;;;3.56;63.83
62374;BME280;48409;49.030;1.820;2023-01-26T03:35:14;101567.25;;;3.56;63.81
62374;BME280;48409;49.030;1.820;2023-01-26T03:37:42;101574.22;;;3.57;64.02
62374;BME280;48409;49.030;1.820;2023-01-26T03:40:11;101562.03;;;3.56;63.98
62374;BME280;48409;49.030;1.820;2023-01-26T03:42:56;101569.00;;;3.57;63.95
62374;BME280;48409;49.030;1.820;2023-01-26T03:45:40;101558.56;;;3.57;64.05
62374;BME280;48409;49.030;1.820;2023-01-26T03:48:24;101559.41;;;3.59;63.96
62374;BME280;48409;49.030;1.820;2023-01-26T03:51:08;101560.31;;;3.58;63.92
62374;BME280;48409;49.030;1.820;2023-01-26T03:53:52;101560.31;;;3.58;64.02
62374;BME280;48409;49.030;1.820;2023-01-26T03:56:36;101554.22;;;3.56;64.06
62374;BME280;48409;49.030;1.820;2023-01-26T03:59:08;101561.19;;;3.57;64.03
62374;BME280;48409;49.030;1.820;2023-01-26T04:01:38;101557.69;;;3.58;63.92
62374;BME280;48409;49.030;1.820;2023-01-26T04:04:05;101559.41;;;3.58;63.94
62374;BME280;48409;49.030;1.820;2023-01-26T04:06:50;101555.09;;;3.58;63.92
62374;BME280;48409;49.030;1.820;2023-01-26T04:09:36;101549.88;;;3.58;64.14
62374;BME280;48409;49.030;1.820;2023-01-26T04:12:04;101549.00;;;3.58;63.89
62374;BME280;48409;49.030;1.820;2023-01-26T04:14:29;101542.91;;;3.59;63.88
62374;BME280;48409;49.030;1.820;2023-01-26T04:17:13;101548.13;;;3.59;64.05
62374;BME280;48409;49.030;1.820;2023-01-26T04:19:57;101559.41;;;3.59;63.96
62374;BME280;48409;49.030;1.820;2023-01-26T04:22:42;101562.03;;;3.59;63.94
62374;BME280;48409;49.030;1.820;2023-01-26T04:25:14;101562.03;;;3.59;64.13
62374;BME280;48409;49.030;1.820;2023-01-26T04:27:40;101562.03;;;3.59;64.06
62374;BME280;48409;49.030;1.820;2023-01-26T04:30:09;101557.69;;;3.58;64.27
62374;BME280;48409;49.030;1.820;2023-01-26T04:32:34;101565.47;;;3.61;64.19
62374;BME280;48409;49.030;1.820;2023-01-26T04:35:00;101561.16;;;3.60;63.96
62374;BME280;48409;49.030;1.820;2023-01-26T04:37:25;101571.56;;;3.62;63.91
62374;BME280;48409;49.030;1.820;2023-01-26T04:39:51;101574.19;;;3.63;63.90
62374;BME280;48409;49.030;1.820;2023-01-26T04:42:16;101568.97;;;3.62;64.14
62374;BME280;48409;49.030;1.820;2023-01-26T04:44:41;101574.19;;;3.62;64.05
62374;BME280;48409;49.030;1.820;2023-01-26T04:47:07;101579.38;;;3.63;63.85
62374;BME280;48409;49.030;1.820;2023-01-26T04:49:32;101575.91;;;3.64;63.84
62374;BME280;48409;49.030;1.820;2023-01-26T04:51:58;101576.78;;;3.63;63.92
62374;BME280;48409;49.030;1.820;2023-01-26T04:54:23;101569.84;;;3.64;64.09
62374;BME280;48409;49.030;1.820;2023-01-26T04:56:48;101570.69;;;3.64;64.01
62374;BME280;48409;49.030;1.820;2023-01-26T04:59:17;101568.09;;;3.64;64.15
62374;BME280;48409;49.030;1.820;2023-01-26T05:01:42;101566.34;;;3.65;64.07
62374;BME280;48409;49.030;1.820;2023-01-26T05:04:09;101567.22;;;3.65;63.90
62374;BME280;48409;49.030;1.820;2023-01-26T05:06:35;101561.16;;;3.67;64.08
62374;BME280;48409;49.030;1.820;2023-01-26T05:09:03;101564.59;;;3.67;63.95
62374;BME280;48409;49.030;1.820;2023-01-26T05:11:28;101555.06;;;3.68;63.97
62374;BME280;48409;49.030;1.820;2023-01-26T05:13:54;101562.00;;;3.69;63.99
62374;BME280;48409;49.030;1.820;2023-01-26T05:16:19;101558.50;;;3.70;64.18
62374;BME280;48409;49.030;1.820;2023-01-26T05:18:44;101558.50;;;3.68;64.17
62374;BME280;48409;49.030;1.820;2023-01-26T05:21:10;101563.72;;;3.70;63.99
62374;BME280;48409;49.030;1.820;2023-01-26T05:23:36;101559.38;;;3.69;63.88
62374;BME280;48409;49.030;1.820;2023-01-26T05:26:02;101563.72;;;3.70;63.92
62374;BME280;48409;49.030;1.820;2023-01-26T05:28:27;101565.47;;;3.71;64.10
62374;BME280;48409;49.030;1.820;2023-01-26T05:30:53;101561.13;;;3.71;64.13
62374;BME280;48409;49.030;1.820;2023-01-26T05:33:18;101560.28;;;3.71;63.95
62374;BME280;48409;49.030;1.820;2023-01-26T05:35:51;101552.44;;;3.71;64.10
62374;BME280;48409;49.030;1.820;2023-01-26T05:38:17;101555.06;;;3.71;63.96
62374;BME280;48409;49.030;1.820;2023-01-26T05:40:43;101549.84;;;3.71;64.10
62374;BME280;48409;49.030;1.820;2023-01-26T05:43:09;101552.44;;;3.71;64.11
62374;BME280;48409;49.030;1.820;2023-01-26T05:45:35;101553.31;;;3.71;63.92
62374;BME280;48409;49.030;1.820;2023-01-26T05:48:01;101548.09;;;3.70;64.08
62374;BME280;48409;49.030;1.820;2023-01-26T05:50:26;101548.97;;;3.72;64.05
62374;BME280;48409;49.030;1.820;2023-01-26T05:52:52;101556.78;;;3.72;63.91
62374;BME280;48409;49.030;1.820;2023-01-26T05:55:17;101556.78;;;3.72;64.19
62374;BME280;48409;49.030;1.820;2023-01-26T05:57:43;101546.34;;;3.72;63.81
62374;BME280;48409;49.030;1.820;2023-01-26T06:00:09;101550.69;;;3.71;64.09
62374;BME280;48409;49.030;1.820;2023-01-26T06:02:35;101546.34;;;3.70;64.11
62374;BME280;48409;49.030;1.820;2023-01-26T06:05:00;101555.91;;;3.71;64.08
62374;BME280;48409;49.030;1.820;2023-01-26T06:07:25;101552.41;;;3.72;64.21
62374;BME280;48409;49.030;1.820;2023-01-26T06:09:51;101554.19;;;3.72;64.02
62374;BME280;48409;49.030;1.820;2023-01-26T06:12:19;101557.63;;;3.72;64.32
62374;BME280;48409;49.030;1.820;2023-01-26T06:14:45;101548.97;;;3.72;64.21
62374;BME280;48409;49.030;1.820;2023-01-26T06:17:12;101554.19;;;3.73;64.04
62374;BME280;48409;49.030;1.820;2023-01-26T06:19:38;101558.50;;;3.73;64.21
62374;BME280;48409;49.030;1.820;2023-01-26T06:22:08;101550.69;;;3.74;64.13
62374;BME280;48409;49.030;1.820;2023-01-26T06:24:34;101553.31;;;3.73;64.11
62374;BME280;48409;49.030;1.820;2023-01-26T06:27:00;101549.81;;;3.74;64.18
62374;BME280;48409;49.030;1.820;2023-01-26T06:29:26;101548.97;;;3.73;63.99
62374;BME280;48409;49.030;1.820;2023-01-26T06:31:52;101557.63;;;3.74;64.01
62374;BME280;48409;49.030;1.820;2023-01-26T06:34:17;101554.19;;;3.73;64.10
62374;BME280;48409;49.030;1.820;2023-01-26T06:36:44;101556.75;;;3.75;64.09
62374;BME280;48409;49.030;1.820;2023-01-26T06:39:10;101560.25;;;3.74;63.94
62374;BME280;48409;49.030;1.820;2023-01-26T06:41:36;101561.97;;;3.75;64.28
62374;BME280;48409;49.030;1.820;2023-01-26T06:44:01;101560.25;;;3.74;64.13
62374;BME280;48409;49.030;1.820;2023-01-26T06:46:27;101558.50;;;3.73;64.01
62374;BME280;48409;49.030;1.820;2023-01-26T06:48:52;101566.31;;;3.74;64.04
62374;BME280;48409;49.030;1.820;2023-01-26T06:53:48;101567.19;;;3.75;63.91
62374;BME280;48409;49.030;1.820;2023-01-26T06:56:15;101575.88;;;3.74;64.11
62374;BME280;48409;49.030;1.820;2023-01-26T06:58:41;101581.97;;;3.76;64.06
62374;BME280;48409;49.030;1.820;2023-01-26T07:01:08;101582.81;;;3.75;64.29
62374;BME280;48409;49.030;1.820;2023-01-26T07:03:33;101575.88;;;3.74;64.26
62374;BME280;48409;49.030;1.820;2023-01-26T07:05:59;101575.88;;;3.74;64.17
62374;BME280;48409;49.030;1.820;2023-01-26T07:08:24;101571.53;;;3.74;64.13
62374;BME280;48409;49.030;1.820;2023-01-26T07:10:50;101581.97;;;3.74;64.01
62374;BME280;48409;49.030;1.820;2023-01-26T07:13:15;101583.69;;;3.75;64.07
62374;BME280;48409;49.030;1.820;2023-01-26T07:15:41;101588.03;;;3.76;64.18
62374;BME280;48409;49.030;1.820;2023-01-26T07:18:06;101584.56;;;3.76;64.20
62374;BME280;48409;49.030;1.820;2023-01-26T07:20:31;101584.56;;;3.76;63.99
62374;BME280;48409;49.030;1.820;2023-01-26T07:23:00;101583.69;;;3.75;64.21
62374;BME280;48409;49.030;1.820;2023-01-26T07:25:26;101584.56;;;3.76;64.19
62374;BME280;48409;49.030;1.820;2023-01-26T07:27:56;101584.56;;;3.76;63.96
62374;BME280;48409;49.030;1.820;2023-01-26T07:30:21;101598.44;;;3.76;64.01
62374;BME280;48409;49.030;1.820;2023-01-26T07:32:46;101597.59;;;3.76;64.35
62374;BME280;48409;49.030;1.820;2023-01-26T07:35:12;101603.66;;;3.78;64.29
62374;BME280;48409;49.030;1.820;2023-01-26T07:37:37;101608.88;;;3.78;64.00
62374;BME280;48409;49.030;1.820;2023-01-26T07:40:03;101596.72;;;3.77;64.08
62374;BME280;48409;49.030;1.820;2023-01-26T07:42:30;101609.75;;;3.78;64.15
62374;BME280;48409;49.030;1.820;2023-01-26T07:44:55;101606.28;;;3.78;64.24
62374;BME280;48409;49.030;1.820;2023-01-26T07:47:20;101611.47;;;3.78;64.15
62374;BME280;48409;49.030;1.820;2023-01-26T07:49:46;101614.97;;;3.78;64.11
62374;BME280;48409;49.030;1.820;2023-01-26T07:52:11;101621.03;;;3.79;64.14
62374;BME280;48409;49.030;1.820;2023-01-26T07:54:37;101610.59;;;3.79;64.39
62374;BME280;48409;49.030;1.820;2023-01-26T07:57:02;101612.34;;;3.80;64.05
62374;BME280;48409;49.030;1.820;2023-01-26T07:59:31;101620.19;;;3.80;64.17
62374;BME280;48409;49.030;1.820;2023-01-26T08:01:56;101625.41;;;3.80;64.12
62374;BME280;48409;49.030;1.820;2023-01-26T08:04:22;101628.00;;;3.80;64.15
62374;BME280;48409;49.030;1.820;2023-01-26T08:06:50;101628.84;;;3.81;64.22
62374;BME280;48409;49.030;1.820;2023-01-26T08:09:15;101634.94;;;3.81;64.23
62374;BME280;48409;49.030;1.820;2023-01-26T08:11:40;101634.06;;;3.81;64.21
62374;BME280;48409;49.030;1.820;2023-01-26T08:14:06;101630.59;;;3.80;64.21
62374;BME280;48409;49.030;1.820;2023-01-26T08:16:31;101640.16;;;3.83;63.98
62374;BME280;48409;49.030;1.820;2023-01-26T08:18:57;101638.44;;;3.82;64.41
62374;BME280;48409;49.030;1.820;2023-01-26T08:21:22;101636.66;;;3.82;64.31
62374;BME280;48409;49.030;1.820;2023-01-26T08:23:49;101634.94;;;3.83;64.14
62374;BME280;48409;49.030;1.820;2023-01-26T08:26:15;101635.78;;;3.83;64.27
62374;BME280;48409;49.030;1.820;2023-01-26T08:28:42;101630.56;;;3.83;64.30
62374;BME280;48409;49.030;1.820;2023-01-26T08:31:19;101645.38;;;3.84;64.25
62374;BME280;48409;49.030;1.820;2023-01-26T08:33:46;101653.19;;;3.84;64.15
62374;BME280;48409;49.030;1.820;2023-01-26T08:36:14;101655.78;;;3.84;64.27
62374;BME280;48409;49.030;1.820;2023-01-26T08:38:40;101665.34;;;3.85;64.23
62374;BME280;48409;49.030;1.820;2023-01-26T08:41:06;101664.47;;;3.86;64.43
62374;BME280;48409;49.030;1.820;2023-01-26T08:43:32;101667.06;;;3.86;64.23
62374;BME280;48409;49.030;1.820;2023-01-26T08:45:58;101669.69;;;3.88;64.40
62374;BME280;48409;49.030;1.820;2023-01-26T08:48:23;101673.16;;;3.88;64.30
62374;BME280;48409;49.030;1.820;2023-01-26T08:50:53;101667.94;;;3.88;64.34
62374;BME280;48409;49.030;1.820;2023-01-26T08:53:19;101669.69;;;3.89;64.41
62374;BME280;48409;49.030;1.820;2023-01-26T08:55:44;101672.28;;;3.91;64.27
62374;BME280;48409;49.030;1.820;2023-01-26T08:58:09;101673.13;;;3.91;64.42
62374;BME280;48409;49.030;1.820;2023-01-26T09:00:35;101667.91;;;3.91;64.60
62374;BME280;48409;49.030;1.820;2023-01-26T09:03:03;101677.47;;;3.92;64.46
62374;BME280;48409;49.030;1.820;2023-01-26T09:05:34;101676.63;;;3.94;64.42
62374;BME280;48409;49.030;1.820;2023-01-26T09:08:00;101678.34;;;3.95;64.17
62374;BME280;48409;49.030;1.820;2023-01-26T09:10:26;101680.06;;;3.96;64.37
62374;BME280;48409;49.030;1.820;2023-01-26T09:12:51;101680.06;;;3.96;64.32
62374;BME280;48409;49.030;1.820;2023-01-26T09:15:17;101677.47;;;3.97;64.59
62374;BME280;48409;49.030;1.820;2023-01-26T09:17:42;101691.38;;;3.98;64.29
62374;BME280;48409;49.030;1.820;2023-01-26T09:20:09;101696.59;;;3.99;64.33
62374;BME280;48409;49.030;1.820;2023-01-26T09:22:35;101694.84;;;3.98;64.36
62374;BME280;48409;49.030;1.820;2023-01-26T09:25:00;101699.19;;;4.01;64.65
62374;BME280;48409;49.030;1.820;2023-01-26T09:27:26;101693.97;;;4.01;64.51
62374;BME280;48409;49.030;1.820;2023-01-26T09:29:51;101695.72;;;4.02;64.53
62374;BME280;48409;49.030;1.820;2023-01-26T09:32:17;101697.44;;;4.03;64.42
62374;BME280;48409;49.030;1.820;2023-01-26T09:34:43;101705.28;;;4.04;64.57
62374;BME280;48409;49.030;1.820;2023-01-26T09:37:08;101695.69;;;4.05;64.51
62374;BME280;48409;49.030;1.820;2023-01-26T09:39:33;101694.84;;;4.06;64.45
62374;BME280;48409;49.030;1.820;2023-01-26T09:44:30;101699.16;;;4.10;64.52
62374;BME280;48409;49.030;1.820;2023-01-26T09:47:26;101693.09;;;4.10;64.48
62374;BME280;48409;49.030;1.820;2023-01-26T09:50:03;101692.22;;;4.11;64.38
62374;BME280;48409;49.030;1.820;2023-01-26T09:52:38;101699.16;;;4.13;64.64
62374;BME280;48409;49.030;1.820;2023-01-26T09:55:16;101688.72;;;4.13;64.60
62374;BME280;48409;49.030;1.820;2023-01-26T09:57:58;101694.81;;;4.12;64.52
62374;BME280;48409;49.030;1.820;2023-01-26T10:00:31;101690.44;;;4.14;64.45
62374;BME280;48409;49.030;1.820;2023-01-26T10:05:44;101698.28;;;4.17;64.51
62374;BME280;48409;49.030;1.820;2023-01-26T10:08:13;101691.31;;;4.16;64.61
62374;BME280;48409;49.030;1.820;2023-01-26T10:10:52;101696.53;;;4.20;64.58
62374;BME280;48409;49.030;1.820;2023-01-26T10:13:19;101700.00;;;4.20;64.58
62374;BME280;48409;49.030;1.820;2023-01-26T10:16:02;101713.91;;;4.21;64.82
62374;BME280;48409;49.030;1.820;2023-01-26T10:18:32;101707.81;;;4.22;64.65
62374;BME280;48409;49.030;1.820;2023-01-26T10:21:01;101706.09;;;4.24;64.86
62374;BME280;48409;49.030;1.820;2023-01-26T10:23:33;101719.09;;;4.27;64.90
62374;BME280;48409;49.030;1.820;2023-01-26T10:26:16;101710.41;;;4.28;64.82
62374;BME280;48409;49.030;1.820;2023-01-26T10:28:44;101706.94;;;4.27;64.66
62374;BME280;48409;49.030;1.820;2023-01-26T10:31:18;101700.84;;;4.30;64.73
62374;BME280;48409;49.030;1.820;2023-01-26T10:33:55;101706.91;;;4.32;64.91
62374;BME280;48409;49.030;1.820;2023-01-26T10:36:22;101704.31;;;4.32;64.72
62374;BME280;48409;49.030;1.820;2023-01-26T10:38:48;101701.69;;;4.34;64.76
62374;BME280;48409;49.030;1.820;2023-01-26T10:43:57;101689.53;;;4.37;64.94
62374;BME280;48409;49.030;1.820;2023-01-26T10:46:24;101706.91;;;4.40;64.86
62374;BME280;48409;49.030;1.820;2023-01-26T10:48:58;101692.09;;;4.40;64.99
62374;BME280;48409;49.030;1.820;2023-01-26T10:51:30;101689.50;;;4.42;65.00
62374;BME280;48409;49.030;1.820;2023-01-26T10:54:25;101697.31;;;4.43;64.77
62374;BME280;48409;49.030;1.820;2023-01-26T10:56:58;101700.75;;;4.47;64.75
62374;BME280;48409;49.030;1.820;2023-01-26T10:59:29;101692.94;;;4.49;64.96
62374;BME280;48409;49.030;1.820;2023-01-26T11:01:58;101697.28;;;4.50;65.02
62374;BME280;48409;49.030;1.820;2023-01-26T11:04:25;101693.81;;;4.51;64.86
62374;BME280;48409;49.030;1.820;2023-01-26T11:06:51;101691.16;;;4.52;64.97
62374;BME280;48409;49.030;1.820;2023-01-26T11:09:27;101693.78;;;4.54;64.93
62374;BME280;48409;49.030;1.820;2023-01-26T11:14:20;101690.28;;;4.58;64.83
62374;BME280;48409;49.030;1.820;2023-01-26T11:17:06;101691.16;;;4.59;64.90
62374;BME280;48409;49.030;1.820;2023-01-26T11:22:04;101686.78;;;4.62;65.09
62374;BME280;48409;49.030;1.820;2023-01-26T11:24:33;101692.88;;;4.64;64.92
62374;BME280;48409;49.030;1.820;2023-01-26T11:27:45;101690.22;;;4.67;64.93
62374;BME280;48409;49.030;1.820;2023-01-26T11:30:35;101692.84;;;4.67;65.05
62374;BME280;48409;49.030;1.820;2023-01-26T11:33:26;101692.84;;;4.69;65.03
62374;BME280;48409;49.030;1.820;2023-01-26T11:35:59;101689.34;;;4.70;65.15
62374;BME280;48409;49.030;1.820;2023-01-26T11:38:35;101685.00;;;4.70;65.03
62374;BME280;48409;49.030;1.820;2023-01-26T11:55:42;101679.72;;;4.86;65.03
62374;BME280;48409;49.030;1.820;2023-01-26T12:00:49;101675.31;;;4.90;65.33
62374;BME280;48409;49.030;1.820;2023-01-26T12:05:57;101665.69;;;4.96;65.26
62374;BME280;48409;49.030;1.820;2023-01-26T12:08:30;101666.53;;;4.99;65.25
62374;BME280;48409;49.030;1.820;2023-01-26T12:11:20;101664.78;;;5.02;65.21
62374;BME280;48409;49.030;1.820;2023-01-26T12:19:12;101660.34;;;5.12;65.27
62374;BME280;48409;49.030;1.820;2023-01-26T12:21:43;101650.75;;;5.16;65.36
62374;BME280;48409;49.030;1.820;2023-01-26T12:24:16;101648.16;;;5.17;65.41
62374;BME280;48409;49.030;1.820;2023-01-26T12:26:47;101641.16;;;5.19;65.32
62374;BME280;48409;49.030;1.820;2023-01-26T12:29:19;101648.09;;;5.23;65.46
62374;BME280;48409;49.030;1.820;2023-01-26T12:32:06;101636.75;;;5.26;65.48
62374;BME280;48409;49.030;1.820;2023-01-26T12:34:33;101630.63;;;5.29;65.28
62374;BME280;48409;49.030;1.820;2023-01-26T12:37:09;101634.94;;;5.31;65.46
62374;BME280;48409;49.030;1.820;2023-01-26T12:39:44;101632.31;;;5.33;65.25
62374;BME280;48409;49.030;1.820;2023-01-26T12:42:18;101637.53;;;5.36;65.39
62374;BME280;48409;49.030;1.820;2023-01-26T12:44:56;101637.50;;;5.39;65.55
62374;BME280;48409;49.030;1.820;2023-01-26T12:52:55;101633.13;;;5.41;65.13
62374;BME280;48409;49.030;1.820;2023-01-26T12:55:44;101635.75;;;5.41;65.11
62374;BME280;48409;49.030;1.820;2023-01-26T12:58:23;101633.97;;;5.43;65.29
62374;BME280;48409;49.030;1.820;2023-01-26T13:00:54;101631.34;;;5.43;65.51
62374;BME280;48409;49.030;1.820;2023-01-26T13:03:24;101634.84;;;5.45;65.49
62374;BME280;48409;49.030;1.820;2023-01-26T13:05:56;101633.03;;;5.49;65.46
62374;BME280;48409;49.030;1.820;2023-01-26T13:10:58;101624.31;;;5.50;65.54
62374;BME280;48409;49.030;1.820;2023-01-26T13:18:49;101619.94;;;5.54;65.31
62374;BME280;48409;49.030;1.820;2023-01-26T13:23:58;101619.88;;;5.60;65.59
62374;BME280;48409;49.030;1.820;2023-01-26T13:26:44;101623.34;;;5.62;65.45
62374;BME280;48409;49.030;1.820;2023-01-26T13:29:30;101617.22;;;5.65;65.44
62374;BME280;48409;49.030;1.820;2023-01-26T13:34:47;101614.53;;;5.69;65.60
62374;BME280;48409;49.030;1.820;2023-01-26T13:37:28;101610.19;;;5.71;65.43
62374;BME280;48409;49.030;1.820;2023-01-26T13:39:58;101613.63;;;5.75;65.42
62374;BME280;48409;49.030;1.820;2023-01-26T13:42:28;101613.59;;;5.78;65.87
62374;BME280;48409;49.030;1.820;2023-01-26T13:45:00;101612.69;;;5.81;65.58
62374;BME280;48409;49.030;1.820;2023-01-26T13:47:34;101612.69;;;5.82;65.63
62374;BME280;48409;49.030;1.820;2023-01-26T13:50:40;101615.22;;;5.85;65.56
62374;BME280;48409;49.030;1.820;2023-01-26T13:56:00;101616.03;;;5.92;65.76
62374;BME280;48409;49.030;1.820;2023-01-26T13:58:26;101623.00;;;5.95;65.57
62374;BME280;48409;49.030;1.820;2023-01-26T14:00:59;101617.72;;;5.96;65.49
62374;BME280;48409;49.030;1.820;2023-01-26T14:03:27;101611.63;;;5.99;65.57
62374;BME280;48409;49.030;1.820;2023-01-26T14:05:59;101618.56;;;6.01;65.71
62374;BME280;48409;49.030;1.820;2023-01-26T14:08:26;101621.16;;;6.03;65.56
62374;BME280;48409;49.030;1.820;2023-01-26T14:10:51;101618.53;;;6.05;65.78
62374;BME280;48409;49.030;1.820;2023-01-26T14:13:30;101618.50;;;6.08;65.80
62374;BME280;48409;49.030;1.820;2023-01-26T14:16:01;101616.75;;;6.08;65.57
62374;BME280;48409;49.030;1.820;2023-01-26T14:18:27;101621.09;;;6.11;65.81
62374;BME280;48409;49.030;1.820;2023-01-26T14:21:02;101622.81;;;6.12;65.63
62374;BME280;48409;49.030;1.820;2023-01-26T14:23:32;101623.66;;;6.14;65.78
62374;BME280;48409;49.030;1.820;2023-01-26T14:26:18;101617.56;;;6.15;65.74
62374;BME280;48409;49.030;1.820;2023-01-26T14:28:44;101618.38;;;6.17;65.74
62374;BME280;48409;49.030;1.820;2023-01-26T14:31:17;101621.00;;;6.17;65.58
62374;BME280;48409;49.030;1.820;2023-01-26T14:33:45;101623.59;;;6.19;65.85
62374;BME280;48409;49.030;1.820;2023-01-26T14:36:15;101618.34;;;6.20;65.70
62374;BME280;48409;49.030;1.820;2023-01-26T14:38:44;101626.19;;;6.20;65.75
62374;BME280;48409;49.030;1.820;2023-01-26T14:41:23;101624.41;;;6.22;65.86
62374;BME280;48409;49.030;1.820;2023-01-26T14:43:53;101626.19;;;6.23;65.52
62374;BME280;48409;49.030;1.820;2023-01-26T14:48:56;101625.25;;;6.26;65.67
62374;BME280;48409;49.030;1.820;2023-01-26T14:51:22;101625.28;;;6.24;65.50
62374;BME280;48409;49.030;1.820;2023-01-26T14:53:54;101631.41;;;6.23;65.54
62374;BME280;48409;49.030;1.820;2023-01-26T14:56:29;101636.63;;;6.23;65.52
62374;BME280;48409;49.030;1.820;2023-01-26T14:58:55;101638.38;;;6.23;65.62
62374;BME280;48409;49.030;1.820;2023-01-26T15:01:23;101636.63;;;6.23;65.88
62374;BME280;48409;49.030;1.820;2023-01-26T15:03:56;101633.13;;;6.24;65.56
62374;BME280;48409;49.030;1.820;2023-01-26T15:06:25;101633.06;;;6.27;65.83
62374;BME280;48409;49.030;1.820;2023-01-26T15:09:02;101637.44;;;6.30;65.86
62374;BME280;48409;49.030;1.820;2023-01-26T15:11:34;101637.38;;;6.32;65.94
62374;BME280;48409;49.030;1.820;2023-01-26T15:15:15;101638.25;;;6.32;65.87
62374;BME280;48409;49.030;1.820;2023-01-26T15:17:39;101642.59;;;6.35;65.80
62374;BME280;48409;49.030;1.820;2023-01-26T15:22:39;101647.81;;;6.36;65.86
62374;BME280;48409;49.030;1.820;2023-01-26T15:25:25;101650.41;;;6.38;66.01
62374;BME280;48409;49.030;1.820;2023-01-26T15:27:53;101652.13;;;6.39;65.65
62374;BME280;48409;49.030;1.820;2023-01-26T15:30:29;101653.84;;;6.40;65.94
62374;BME280;48409;49.030;1.820;2023-01-26T15:32:56;101652.09;;;6.42;65.78
62374;BME280;48409;49.030;1.820;2023-01-26T15:35:32;101655.53;;;6.44;65.84
62374;BME280;48409;49.030;1.820;2023-01-26T15:38:04;101650.28;;;6.46;65.98